createdAt,value
2022-10-24T00:02:34.985Z,51.72
2022-10-24T00:07:56.626Z,51.71
2022-10-24T00:13:18.455Z,51.46
2022-10-24T00:18:40.614Z,51.47
2022-10-24T00:24:02.242Z,52.11
2022-10-24T00:29:23.958Z,51.95
2022-10-24T00:34:45.766Z,51.40
2022-10-24T00:40:08.216Z,51.35
2022-10-24T00:45:50.897Z,51.39
2022-10-24T00:51:34.080Z,51.68
2022-10-24T00:57:00.303Z,51.35
2022-10-24T01:02:22.510Z,51.21
2022-10-24T01:08:03.257Z,51.37
2022-10-24T01:13:49.547Z,51.25
2022-10-24T01:19:13.985Z,51.38
2022-10-24T01:24:51.116Z,50.97
2022-10-24T01:30:15.992Z,51.11
2022-10-24T01:35:47.354Z,50.94
2022-10-24T01:41:16.688Z,51.01
2022-10-24T01:46:44.768Z,50.82
2022-10-24T01:57:54.032Z,50.67
2022-10-24T02:03:25.510Z,50.58
2022-10-24T02:08:53.046Z,50.35
2022-10-24T02:14:30.715Z,50.48
2022-10-24T02:19:52.601Z,50.07
2022-10-24T02:25:38.512Z,50.15
2022-10-24T02:31:16.514Z,50.20
2022-10-24T02:36:40.366Z,50.18
2022-10-24T02:42:04.770Z,49.97
2022-10-24T02:47:28.582Z,50.09
2022-10-24T02:52:50.306Z,49.82
2022-10-24T02:58:12.014Z,49.84
2022-10-24T03:03:33.692Z,50.00
2022-10-24T03:08:55.432Z,49.75
2022-10-24T03:14:17.396Z,49.84
2022-10-24T03:19:39.067Z,49.91
2022-10-24T03:25:03.321Z,49.67
2022-10-24T03:30:25.076Z,49.41
2022-10-24T03:35:46.751Z,49.99
2022-10-24T03:41:08.467Z,49.54
2022-10-24T03:46:30.175Z,49.88
2022-10-24T03:51:51.946Z,49.48
2022-10-24T03:57:13.667Z,49.85
2022-10-24T04:02:37.036Z,49.83
2022-10-24T04:08:00.728Z,49.73
2022-10-24T04:13:22.468Z,49.70
2022-10-24T04:18:44.354Z,49.52
2022-10-24T04:24:06.400Z,49.38
2022-10-24T04:29:28.054Z,49.32
2022-10-24T04:34:49.799Z,49.38
2022-10-24T04:40:11.839Z,49.07
2022-10-24T04:45:33.482Z,49.39
2022-10-24T04:50:55.231Z,49.16
2022-10-24T04:56:17.137Z,49.51
2022-10-24T05:01:38.869Z,49.18
2022-10-24T05:07:00.635Z,49.18
2022-10-24T05:12:22.476Z,48.90
2022-10-24T05:17:44.387Z,48.89
2022-10-24T05:23:06.238Z,49.10
2022-10-24T05:28:28.008Z,48.62
2022-10-24T05:33:49.648Z,49.04
2022-10-24T05:39:11.332Z,48.87
2022-10-24T05:44:33.095Z,48.42
2022-10-24T05:49:55.002Z,48.51
2022-10-24T05:55:18.180Z,48.78
2022-10-24T06:00:40.094Z,48.30
2022-10-24T06:06:08.167Z,48.63
2022-10-24T06:11:29.874Z,48.46
2022-10-24T06:16:51.562Z,48.65
2022-10-24T06:22:13.276Z,48.61
2022-10-24T06:27:34.965Z,48.68
2022-10-24T06:32:56.601Z,48.47
2022-10-24T06:38:18.255Z,48.46
2022-10-24T06:43:41.523Z,48.47
2022-10-24T06:49:03.429Z,48.18
2022-10-24T06:54:27.735Z,48.36
2022-10-24T06:59:53.050Z,48.73
2022-10-24T07:05:14.776Z,48.48
2022-10-24T07:10:36.632Z,48.30
2022-10-24T07:15:58.306Z,48.55
2022-10-24T07:21:25.617Z,48.47
2022-10-24T07:26:47.380Z,48.71
2022-10-24T07:32:09.049Z,48.47
2022-10-24T07:37:30.661Z,48.48
2022-10-24T07:42:52.325Z,48.39
2022-10-24T07:48:14.003Z,48.28
2022-10-24T07:53:35.942Z,48.56
2022-10-24T07:58:58.750Z,48.36
2022-10-24T08:04:20.405Z,48.25
2022-10-24T08:09:44.683Z,48.52
2022-10-24T08:15:06.839Z,48.42
2022-10-24T08:20:28.507Z,48.66
2022-10-24T08:25:50.188Z,48.75
2022-10-24T08:31:18.360Z,48.48
2022-10-24T08:36:40.095Z,48.62
2022-10-24T08:42:05.470Z,48.14
2022-10-24T08:47:44.887Z,48.07
2022-10-24T08:53:27.682Z,48.58
2022-10-24T08:58:52.028Z,48.12
2022-10-24T09:04:17.526Z,48.42
2022-10-24T09:09:43.003Z,48.30
2022-10-24T09:15:15.239Z,48.39
2022-10-24T09:20:36.968Z,48.65
2022-10-24T09:25:59.341Z,48.27
2022-10-24T09:31:24.772Z,48.58
2022-10-24T09:36:46.794Z,48.38
2022-10-24T09:42:22.132Z,48.57
2022-10-24T09:47:44.385Z,48.48
2022-10-24T09:53:06.395Z,48.62
2022-10-24T09:58:32.830Z,48.40
2022-10-24T10:04:09.491Z,48.31
2022-10-24T10:09:35.147Z,48.58
2022-10-24T10:14:57.099Z,47.83
2022-10-24T10:20:38.879Z,48.08
2022-10-24T10:26:11.799Z,48.44
2022-10-24T10:31:40.927Z,48.34
2022-10-24T10:37:02.573Z,48.14
2022-10-24T10:42:35.371Z,48.47
2022-10-24T10:48:09.502Z,47.98
2022-10-24T10:53:57.286Z,48.02
2022-10-24T10:59:28.566Z,48.18
2022-10-24T11:05:20.055Z,48.45
2022-10-24T11:10:51.751Z,48.16
2022-10-24T11:16:20.486Z,48.06
2022-10-24T11:21:44.029Z,48.39
2022-10-24T11:27:20.851Z,48.16
2022-10-24T11:33:02.255Z,48.27
2022-10-24T11:38:25.944Z,48.33
2022-10-24T11:43:48.979Z,48.10
2022-10-24T11:49:31.402Z,48.04
2022-10-24T11:54:59.100Z,47.84
2022-10-24T12:00:28.355Z,47.79
2022-10-24T12:06:06.586Z,48.14
2022-10-24T12:11:34.095Z,48.18
2022-10-24T12:16:55.739Z,48.28
2022-10-24T12:28:25.708Z,48.09
2022-10-24T12:34:16.284Z,48.06
2022-10-24T12:39:45.768Z,47.91
2022-10-24T12:45:27.483Z,47.90
2022-10-24T12:51:01.395Z,47.61
2022-10-24T12:56:23.135Z,47.96
2022-10-24T13:01:46.545Z,48.01
2022-10-24T13:07:47.207Z,47.67
2022-10-24T13:13:30.401Z,47.47
2022-10-24T13:19:04.239Z,47.55
2022-10-24T13:24:37.976Z,47.51
2022-10-24T13:30:03.561Z,47.99
2022-10-24T13:35:25.783Z,48.01
2022-10-24T13:40:47.639Z,47.78
2022-10-24T13:46:13.198Z,47.59
2022-10-24T13:51:34.981Z,47.85
2022-10-24T13:56:59.771Z,47.63
2022-10-24T14:02:31.327Z,47.91
2022-10-24T14:07:54.102Z,47.74
2022-10-24T14:13:18.750Z,47.83
2022-10-24T14:18:41.787Z,47.52
2022-10-24T14:24:03.549Z,47.84
2022-10-24T14:29:28.424Z,47.86
2022-10-24T14:34:50.782Z,47.63
2022-10-24T14:40:18.081Z,47.98
2022-10-24T14:45:39.740Z,47.99
2022-10-24T14:51:03.970Z,47.80
2022-10-24T14:56:31.493Z,47.78
2022-10-24T15:02:15.006Z,48.02
2022-10-24T15:07:40.676Z,47.50
2022-10-24T15:13:21.653Z,48.04
2022-10-24T15:18:44.204Z,47.98
2022-10-24T15:24:06.589Z,47.65
2022-10-24T15:29:28.916Z,47.88
2022-10-24T15:34:53.914Z,48.01
2022-10-24T15:40:20.858Z,48.05
2022-10-24T15:45:43.006Z,47.87
2022-10-24T15:51:04.740Z,46.71
2022-10-24T15:56:26.559Z,46.53
2022-10-24T16:01:51.230Z,46.56
2022-10-24T16:07:13.034Z,46.38
2022-10-24T16:12:34.718Z,46.64
2022-10-24T16:17:56.400Z,46.82
2022-10-24T16:23:18.137Z,46.89
2022-10-24T16:28:39.905Z,46.84
2022-10-24T16:34:01.749Z,47.54
2022-10-24T16:39:24.309Z,47.61
2022-10-24T16:44:46.130Z,47.63
2022-10-24T16:50:08.490Z,47.70
2022-10-24T16:55:31.245Z,47.60
2022-10-24T17:01:02.577Z,47.91
2022-10-24T17:06:24.295Z,48.23
2022-10-24T17:11:46.639Z,48.42
2022-10-24T17:17:08.411Z,48.70
2022-10-24T17:22:30.267Z,48.40
2022-10-24T17:27:52.933Z,48.39
2022-10-24T17:33:15.193Z,48.10
2022-10-24T17:39:20.683Z,47.77
2022-10-24T17:44:44.281Z,47.24
2022-10-24T17:50:06.464Z,47.10
2022-10-24T17:55:44.962Z,47.17
2022-10-24T18:01:08.385Z,47.05
2022-10-24T18:06:30.592Z,47.30
2022-10-24T18:11:52.349Z,47.09
2022-10-24T18:17:16.930Z,47.25
2022-10-24T18:22:39.020Z,47.46
2022-10-24T18:28:00.750Z,47.63
2022-10-24T18:33:22.460Z,47.57
2022-10-24T18:38:44.565Z,47.79
2022-10-24T18:44:24.819Z,47.82
2022-10-24T18:49:47.355Z,47.45
2022-10-24T18:55:18.922Z,47.69
2022-10-24T19:00:42.965Z,48.01
2022-10-24T19:06:28.372Z,47.82
2022-10-24T19:11:51.148Z,48.11
2022-10-24T19:17:14.466Z,48.04
2022-10-24T19:22:36.130Z,48.07
2022-10-24T19:27:57.846Z,48.03
2022-10-24T19:33:20.912Z,48.20
2022-10-24T19:38:42.570Z,48.21
2022-10-24T19:44:05.479Z,48.04
2022-10-24T19:49:27.144Z,48.00
2022-10-24T19:54:48.894Z,48.16
2022-10-24T20:00:11.161Z,48.29
2022-10-24T20:05:33.122Z,48.28
2022-10-24T20:10:55.161Z,48.31
2022-10-24T20:16:16.826Z,48.31
2022-10-24T20:21:38.562Z,48.11
2022-10-24T20:27:01.159Z,48.21
2022-10-24T20:32:22.916Z,48.54
2022-10-24T20:37:45.454Z,48.32
2022-10-24T20:43:07.376Z,48.63
2022-10-24T20:48:29.090Z,48.57
2022-10-24T20:53:50.903Z,48.21
2022-10-24T20:59:13.628Z,48.48
2022-10-24T21:04:35.401Z,48.44
2022-10-24T21:09:57.088Z,48.30
2022-10-24T21:15:18.747Z,48.39
2022-10-24T21:20:40.433Z,48.43
2022-10-24T21:26:10.497Z,48.56
2022-10-24T21:31:32.135Z,48.73
2022-10-24T21:36:53.863Z,48.29
2022-10-24T21:42:15.575Z,48.29
2022-10-24T21:47:37.267Z,48.30
2022-10-24T21:52:58.950Z,48.79
2022-10-24T21:58:20.648Z,48.50
2022-10-24T22:03:42.610Z,48.76
2022-10-24T22:09:06.407Z,48.76
2022-10-24T22:14:28.183Z,48.59
2022-10-24T22:19:49.856Z,48.78
2022-10-24T22:25:11.479Z,48.39
2022-10-24T22:30:33.318Z,48.69
2022-10-24T22:35:59.785Z,48.77
2022-10-24T22:41:22.335Z,48.67
2022-10-24T22:46:52.901Z,48.74
2022-10-24T22:52:14.959Z,48.48
2022-10-24T22:57:36.977Z,48.63
2022-10-24T23:03:15.594Z,48.86
2022-10-24T23:08:39.872Z,48.44
2022-10-24T23:14:01.922Z,48.67
2022-10-24T23:19:28.812Z,48.72
2022-10-24T23:24:52.112Z,48.84
2022-10-24T23:30:22.171Z,48.66
2022-10-24T23:35:44.229Z,48.59
2022-10-24T23:41:10.659Z,48.71
2022-10-24T23:46:37.342Z,48.48
2022-10-24T23:52:18.455Z,48.60
2022-10-24T23:57:40.291Z,48.64
